Time;durP1;ratioP1;P1;durP2;ratioP2;P2;SDS_P1;SDS_P2;PMS_P1;PMS_P2;Temp;Humidity;BMP_temperature;BMP_pressure;BME280_temperature;BME280_humidity;BME280_pressure;Samples;Min_cycle;Max_cycle;Signal;HPM_P1;HPM_P2
2024/02/29 00:01:57;;;;;;;2.28;0.80;;;;;;;;;;5049625;28;20044;-69
2024/02/29 00:04:24;;;;;;;1.40;0.60;;;;;;;;;;5049269;28;20052;-70
2024/02/29 00:06:50;;;;;;;4.05;0.80;;;;;;;;;;5049519;28;20044;-70
2024/02/29 00:09:15;;;;;;;2.03;0.95;;;;;;;;;;5031838;28;20032;-69
2024/02/29 00:11:41;;;;;;;1.58;1.10;;;;;;;;;;5031537;28;20408;-68
2024/02/29 00:14:06;;;;;;;1.15;0.70;;;;;;;;;;5049864;28;20032;-69
2024/02/29 00:16:32;;;;;;;7.45;1.40;;;;;;;;;;5053064;28;20037;-68
2024/02/29 00:18:57;;;;;;;1.63;0.70;;;;;;;;;;5051526;28;20037;-68
2024/02/29 00:21:22;;;;;;;3.53;0.88;;;;;;;;;;5053266;28;20040;-70
2024/02/29 00:23:48;;;;;;;5.30;1.20;;;;;;;;;;5053305;28;20481;-69
2024/02/29 00:26:14;;;;;;;1.90;0.95;;;;;;;;;;5053090;28;20380;-69
2024/02/29 00:28:39;;;;;;;2.05;1.10;;;;;;;;;;5053211;28;20033;-69
2024/02/29 00:31:05;;;;;;;2.65;0.73;;;;;;;;;;5053404;28;20534;-68
2024/02/29 00:33:30;;;;;;;3.72;1.02;;;;;;;;;;5052958;28;20115;-68
2024/02/29 00:35:55;;;;;;;11.85;1.52;;;;;;;;;;5052509;28;20128;-69
2024/02/29 00:38:20;;;;;;;5.38;1.42;;;;;;;;;;5052990;28;20129;-69
2024/02/29 00:40:46;;;;;;;9.73;1.77;;;;;;;;;;5052368;28;20033;-69
2024/02/29 00:43:11;;;;;;;10.02;2.20;;;;;;;;;;5052670;28;20028;-68
2024/02/29 00:45:37;;;;;;;3.22;1.40;;;;;;;;;;5052802;28;20045;-69
2024/02/29 00:48:02;;;;;;;4.90;1.30;;;;;;;;;;5034972;28;20040;-68
2024/02/29 00:50:27;;;;;;;3.97;1.15;;;;;;;;;;5052371;28;20484;-68
2024/02/29 00:52:53;;;;;;;6.90;1.98;;;;;;;;;;5052791;28;20041;-69
2024/02/29 00:55:18;;;;;;;6.70;1.45;;;;;;;;;;5049965;28;20044;-68
2024/02/29 00:57:49;;;;;;;3.92;0.98;;;;;;;;;;5052072;28;20113;-68
2024/02/29 01:00:15;;;;;;;2.65;1.00;;;;;;;;;;5052575;28;20044;-69
2024/02/29 01:02:40;;;;;;;1.67;0.88;;;;;;;;;;5034716;28;20041;-68
2024/02/29 01:05:07;;;;;;;1.80;0.63;;;;;;;;;;5051647;28;20032;-68
2024/02/29 01:07:32;;;;;;;1.65;0.50;;;;;;;;;;5051799;28;20111;-68
2024/02/29 01:09:58;;;;;;;3.83;0.80;;;;;;;;;;5052004;28;20037;-69
2024/02/29 01:12:24;;;;;;;5.15;1.08;;;;;;;;;;5052274;28;20029;-69
2024/02/29 01:14:49;;;;;;;5.18;1.10;;;;;;;;;;5052497;28;20044;-68
2024/02/29 01:17:14;;;;;;;2.65;0.90;;;;;;;;;;5052556;28;20633;-69
2024/02/29 01:19:40;;;;;;;3.75;0.73;;;;;;;;;;5052074;28;20037;-68
2024/02/29 01:22:05;;;;;;;1.00;0.57;;;;;;;;;;5051960;28;20044;-68
2024/02/29 01:24:30;;;;;;;4.38;0.80;;;;;;;;;;5046463;28;20111;-69
2024/02/29 01:26:56;;;;;;;1.25;0.50;;;;;;;;;;5042981;28;20079;-69
2024/02/29 01:29:22;;;;;;;1.02;0.52;;;;;;;;;;5051754;28;20041;-68
2024/02/29 01:31:48;;;;;;;1.48;0.60;;;;;;;;;;5052094;28;20040;-69
2024/02/29 01:34:13;;;;;;;3.83;0.65;;;;;;;;;;5027273;28;20053;-69
2024/02/29 01:36:38;;;;;;;0.95;0.52;;;;;;;;;;5051421;28;20040;-69
2024/02/29 01:39:04;;;;;;;0.63;0.40;;;;;;;;;;5051608;28;20034;-68
2024/02/29 01:41:29;;;;;;;0.95;0.50;;;;;;;;;;5051823;28;20108;-68
2024/02/29 01:43:54;;;;;;;0.20;0.20;;;;;;;;;;5051434;28;20041;-70
2024/02/29 01:46:20;;;;;;;0.40;0.30;;;;;;;;;;5051815;28;20044;-69
2024/02/29 01:48:48;;;;;;;0.43;0.32;;;;;;;;;;5051913;28;20032;-69
2024/02/29 01:51:15;;;;;;;0.45;0.30;;;;;;;;;;5051234;28;20465;-69
2024/02/29 01:53:41;;;;;;;5.20;0.50;;;;;;;;;;5033715;28;20037;-68
2024/02/29 01:56:07;;;;;;;0.82;0.40;;;;;;;;;;5033520;28;20082;-68
2024/02/29 01:58:34;;;;;;;1.63;0.43;;;;;;;;;;5033638;28;20041;-69
2024/02/29 02:00:59;;;;;;;0.20;0.20;;;;;;;;;;5051268;28;20041;-69
2024/02/29 02:03:24;;;;;;;1.45;0.43;;;;;;;;;;5051258;28;20082;-69
2024/02/29 02:05:50;;;;;;;0.75;0.40;;;;;;;;;;5033471;28;20041;-69
2024/02/29 02:08:16;;;;;;;1.17;0.40;;;;;;;;;;5051173;28;20047;-70
2024/02/29 02:10:41;;;;;;;4.07;0.40;;;;;;;;;;5032098;28;20420;-69
2024/02/29 02:13:07;;;;;;;0.80;0.32;;;;;;;;;;5051394;28;20131;-69
2024/02/29 02:15:33;;;;;;;0.43;0.30;;;;;;;;;;5049250;28;20036;-68
2024/02/29 02:17:58;;;;;;;0.22;0.20;;;;;;;;;;5051326;28;20040;-69
2024/02/29 02:20:24;;;;;;;0.30;0.30;;;;;;;;;;5051349;28;20384;-69
2024/02/29 02:22:50;;;;;;;0.30;0.20;;;;;;;;;;5050779;28;20401;-69
2024/02/29 02:25:15;;;;;;;0.38;0.30;;;;;;;;;;5049563;28;20040;-67
2024/02/29 02:27:41;;;;;;;1.65;0.47;;;;;;;;;;5051355;28;20090;-69
2024/02/29 02:30:07;;;;;;;0.35;0.20;;;;;;;;;;5050789;28;20041;-69
2024/02/29 02:32:36;;;;;;;2.35;0.20;;;;;;;;;;5032953;28;20033;-69
2024/02/29 02:35:04;;;;;;;0.20;0.20;;;;;;;;;;5050404;28;20120;-69
2024/02/29 02:37:31;;;;;;;0.80;0.28;;;;;;;;;;5050567;28;20029;-68
2024/02/29 02:39:56;;;;;;;0.20;0.20;;;;;;;;;;5050589;28;20040;-69
2024/02/29 02:42:22;;;;;;;0.98;0.35;;;;;;;;;;5050550;28;20079;-69
2024/02/29 02:44:47;;;;;;;0.25;0.20;;;;;;;;;;5049608;28;20048;-70
2024/02/29 02:47:13;;;;;;;0.20;0.20;;;;;;;;;;5050403;28;20112;-69
2024/02/29 02:49:39;;;;;;;0.10;0.10;;;;;;;;;;5050741;28;20044;-70
2024/02/29 02:52:05;;;;;;;0.20;0.15;;;;;;;;;;5050616;28;20041;-70
2024/02/29 02:54:30;;;;;;;0.10;0.10;;;;;;;;;;5047757;28;20108;-68
2024/02/29 02:56:55;;;;;;;0.20;0.17;;;;;;;;;;5050322;28;20040;-70
2024/02/29 02:59:21;;;;;;;0.25;0.20;;;;;;;;;;5032184;28;20044;-70
2024/02/29 03:01:46;;;;;;;0.10;0.10;;;;;;;;;;5049435;28;20028;-70
2024/02/29 03:04:12;;;;;;;0.10;0.10;;;;;;;;;;5050638;28;20067;-70
2024/02/29 03:06:38;;;;;;;0.00;0.00;;;;;;;;;;5050267;28;20395;-69
2024/02/29 03:09:03;;;;;;;0.20;0.20;;;;;;;;;;5050263;28;20033;-68
2024/02/29 03:11:30;;;;;;;0.25;0.20;;;;;;;;;;5050289;28;20039;-69
2024/02/29 03:13:55;;;;;;;0.15;0.15;;;;;;;;;;5050445;28;20041;-69
2024/02/29 03:16:23;;;;;;;0.28;0.22;;;;;;;;;;5050022;28;20021;-70
2024/02/29 03:18:49;;;;;;;0.30;0.20;;;;;;;;;;5050113;28;20495;-69
2024/02/29 03:21:14;;;;;;;1.35;0.20;;;;;;;;;;5032279;28;20029;-68
2024/02/29 03:23:40;;;;;;;0.65;0.20;;;;;;;;;;5032396;28;20126;-69
2024/02/29 03:26:06;;;;;;;0.43;0.10;;;;;;;;;;5031875;28;20040;-69
2024/02/29 03:28:31;;;;;;;0.17;0.17;;;;;;;;;;5050038;28;20049;-69
2024/02/29 03:30:58;;;;;;;0.32;0.10;;;;;;;;;;5050118;28;20040;-69
2024/02/29 03:33:23;;;;;;;0.65;0.20;;;;;;;;;;5040449;28;20075;-69
2024/02/29 03:35:48;;;;;;;0.52;0.10;;;;;;;;;;5050028;28;20053;-69
2024/02/29 03:38:15;;;;;;;0.17;0.17;;;;;;;;;;5049950;28;20043;-69
2024/02/29 03:40:40;;;;;;;0.38;0.20;;;;;;;;;;5049642;28;20036;-69
2024/02/29 03:43:06;;;;;;;0.32;0.22;;;;;;;;;;5049959;28;20045;-69
2024/02/29 03:45:31;;;;;;;0.30;0.30;;;;;;;;;;5049988;28;20471;-69
2024/02/29 03:47:56;;;;;;;0.28;0.20;;;;;;;;;;5031865;28;20657;-69
2024/02/29 03:50:24;;;;;;;0.35;0.25;;;;;;;;;;5051760;28;20465;-69
2024/02/29 03:52:50;;;;;;;0.55;0.30;;;;;;;;;;5054310;28;20045;-69
2024/02/29 03:55:15;;;;;;;0.60;0.30;;;;;;;;;;5035969;28;20045;-69
2024/02/29 03:57:40;;;;;;;0.68;0.30;;;;;;;;;;5035863;28;20111;-69
2024/02/29 04:00:10;;;;;;;0.13;0.13;;;;;;;;;;5053793;28;20357;-69
2024/02/29 04:02:39;;;;;;;0.50;0.28;;;;;;;;;;5053662;28;20069;-69
2024/02/29 04:05:06;;;;;;;0.35;0.30;;;;;;;;;;5053447;28;20044;-69
2024/02/29 04:07:31;;;;;;;0.43;0.30;;;;;;;;;;5053513;28;20041;-69
2024/02/29 04:09:56;;;;;;;0.80;0.43;;;;;;;;;;5053762;28;20407;-69
2024/02/29 04:12:22;;;;;;;0.52;0.40;;;;;;;;;;5051659;28;20095;-69
2024/02/29 04:14:47;;;;;;;0.30;0.20;;;;;;;;;;5032063;28;20048;-68
2024/02/29 04:17:13;;;;;;;0.57;0.30;;;;;;;;;;5051625;28;20064;-69
2024/02/29 04:19:38;;;;;;;0.90;0.30;;;;;;;;;;5053028;28;20037;-68
2024/02/29 04:22:03;;;;;;;1.13;0.40;;;;;;;;;;5053277;28;20044;-68
2024/02/29 04:24:29;;;;;;;0.20;0.20;;;;;;;;;;5053423;28;20111;-69
2024/02/29 04:26:54;;;;;;;2.17;0.30;;;;;;;;;;5053170;28;20124;-68
2024/02/29 04:29:19;;;;;;;2.42;0.30;;;;;;;;;;5035251;28;20465;-69
2024/02/29 04:31:48;;;;;;;0.20;0.15;;;;;;;;;;5053291;28;20531;-69
2024/02/29 04:34:14;;;;;;;2.10;0.30;;;;;;;;;;5052168;28;20048;-69
2024/02/29 04:36:39;;;;;;;0.43;0.30;;;;;;;;;;5050858;28;20048;-69
2024/02/29 04:39:04;;;;;;;0.77;0.40;;;;;;;;;;5051956;28;20120;-70
2024/02/29 04:41:30;;;;;;;0.30;0.20;;;;;;;;;;5052831;28;20120;-69
2024/02/29 04:43:55;;;;;;;1.95;0.30;;;;;;;;;;5052569;28;20076;-69
2024/02/29 04:46:21;;;;;;;0.20;0.20;;;;;;;;;;5053028;28;20029;-69
2024/02/29 04:48:46;;;;;;;1.15;0.20;;;;;;;;;;5052859;28;20090;-68
2024/02/29 04:51:11;;;;;;;0.20;0.20;;;;;;;;;;5052247;28;20047;-68
2024/02/29 04:53:36;;;;;;;1.52;0.35;;;;;;;;;;5052925;28;20120;-69
2024/02/29 04:56:04;;;;;;;1.25;0.17;;;;;;;;;;5050979;28;20131;-69
2024/02/29 04:58:29;;;;;;;0.32;0.25;;;;;;;;;;5052477;28;20119;-69
2024/02/29 05:00:55;;;;;;;0.25;0.17;;;;;;;;;;5051752;28;20577;-69
2024/02/29 05:03:21;;;;;;;0.63;0.10;;;;;;;;;;5052027;28;20515;-69
2024/02/29 05:05:46;;;;;;;1.08;0.20;;;;;;;;;;5052232;28;20065;-70
2024/02/29 05:08:12;;;;;;;0.30;0.30;;;;;;;;;;5034755;28;20029;-70
2024/02/29 05:10:38;;;;;;;0.32;0.30;;;;;;;;;;5046210;28;20124;-69
2024/02/29 05:13:04;;;;;;;45.80;1.40;;;;;;;;;;5052318;28;20125;-69
2024/02/29 05:15:29;;;;;;;0.85;0.43;;;;;;;;;;5052071;28;20036;-68
2024/02/29 05:17:54;;;;;;;0.75;0.32;;;;;;;;;;5052495;28;20037;-68
2024/02/29 05:20:20;;;;;;;0.70;0.22;;;;;;;;;;5052161;28;20056;-69
2024/02/29 05:22:45;;;;;;;0.20;0.15;;;;;;;;;;5051860;28;20029;-69
2024/02/29 05:25:10;;;;;;;0.17;0.10;;;;;;;;;;5052043;28;20059;-68
2024/02/29 05:27:36;;;;;;;1.17;0.20;;;;;;;;;;5052177;28;20053;-69
2024/02/29 05:30:02;;;;;;;0.10;0.10;;;;;;;;;;5050414;28;20495;-68
2024/02/29 05:32:28;;;;;;;0.57;0.45;;;;;;;;;;5034298;28;20033;-69
2024/02/29 05:34:53;;;;;;;4.25;0.30;;;;;;;;;;5034067;28;20060;-68
2024/02/29 05:37:19;;;;;;;0.73;0.22;;;;;;;;;;5051563;28;20032;-70
2024/02/29 05:39:44;;;;;;;0.17;0.13;;;;;;;;;;5052053;28;20472;-68
2024/02/29 05:42:09;;;;;;;1.23;0.20;;;;;;;;;;5033951;28;20039;-69
2024/02/29 05:44:35;;;;;;;0.20;0.20;;;;;;;;;;5051006;28;20025;-69
2024/02/29 05:47:00;;;;;;;0.52;0.30;;;;;;;;;;5051646;28;20041;-70
2024/02/29 05:49:26;;;;;;;10.88;0.40;;;;;;;;;;5052081;28;20453;-70
2024/02/29 05:51:51;;;;;;;1.65;0.20;;;;;;;;;;5049747;28;20433;-69
2024/02/29 05:54:16;;;;;;;2.38;0.20;;;;;;;;;;5033561;28;20037;-69
2024/02/29 05:56:41;;;;;;;0.73;0.20;;;;;;;;;;5051690;28;20526;-69
2024/02/29 05:59:07;;;;;;;2.45;0.25;;;;;;;;;;5051740;28;20025;-69
2024/02/29 06:01:32;;;;;;;1.00;0.20;;;;;;;;;;5050969;28;20069;-69
2024/02/29 06:03:58;;;;;;;1.38;0.22;;;;;;;;;;5033903;28;20064;-69
2024/02/29 06:06:24;;;;;;;2.08;0.47;;;;;;;;;;5051157;28;20421;-69
2024/02/29 06:08:49;;;;;;;0.95;0.38;;;;;;;;;;5050967;28;20098;-68
2024/02/29 06:11:15;;;;;;;1.25;0.25;;;;;;;;;;5043767;28;20040;-69
2024/02/29 06:13:40;;;;;;;1.70;0.40;;;;;;;;;;5031355;28;20033;-69
2024/02/29 06:16:06;;;;;;;1.08;0.25;;;;;;;;;;5048531;28;20086;-68
2024/02/29 06:18:33;;;;;;;0.10;0.10;;;;;;;;;;5030957;28;20053;-69
2024/02/29 06:20:58;;;;;;;0.22;0.15;;;;;;;;;;5031965;28;20029;-68
2024/02/29 06:23:24;;;;;;;2.20;0.63;;;;;;;;;;5049141;28;20029;-70
2024/02/29 06:25:50;;;;;;;3.05;0.20;;;;;;;;;;5049917;28;20043;-69
2024/02/29 06:28:16;;;;;;;1.05;0.20;;;;;;;;;;5032383;28;20033;-69
2024/02/29 06:30:42;;;;;;;1.35;0.28;;;;;;;;;;5050639;28;20044;-69
2024/02/29 06:33:07;;;;;;;0.40;0.28;;;;;;;;;;5050708;28;20040;-70
2024/02/29 06:35:33;;;;;;;3.00;0.60;;;;;;;;;;5051031;28;20059;-69
2024/02/29 06:37:58;;;;;;;1.25;0.30;;;;;;;;;;5050849;28;20036;-68
2024/02/29 06:40:23;;;;;;;4.00;0.45;;;;;;;;;;5032525;28;20203;-69
2024/02/29 06:42:49;;;;;;;5.25;0.75;;;;;;;;;;5032428;28;20064;-69
2024/02/29 06:45:16;;;;;;;4.53;0.55;;;;;;;;;;5033119;28;20037;-68
2024/02/29 06:47:42;;;;;;;5.88;0.57;;;;;;;;;;5032394;28;20033;-68
2024/02/29 06:50:09;;;;;;;5.25;0.75;;;;;;;;;;5050893;28;20037;-69
2024/02/29 06:52:34;;;;;;;8.05;0.90;;;;;;;;;;5032976;28;20037;-69
2024/02/29 06:55:00;;;;;;;2.75;0.50;;;;;;;;;;5032565;28;20524;-69
2024/02/29 06:57:26;;;;;;;8.40;0.77;;;;;;;;;;5050496;28;20503;-69
2024/02/29 06:59:51;;;;;;;4.93;0.52;;;;;;;;;;5050375;28;20400;-68
2024/02/29 07:02:16;;;;;;;9.35;0.77;;;;;;;;;;5049871;28;20379;-68
2024/02/29 07:04:43;;;;;;;6.13;0.90;;;;;;;;;;5049830;28;20083;-68
2024/02/29 07:07:09;;;;;;;6.35;0.85;;;;;;;;;;5050288;28;20103;-70
2024/02/29 07:09:35;;;;;;;5.68;0.93;;;;;;;;;;5032493;28;20114;-69
2024/02/29 07:12:00;;;;;;;7.00;0.73;;;;;;;;;;5050297;28;20072;-68
2024/02/29 07:14:25;;;;;;;3.97;1.05;;;;;;;;;;5050235;28;20064;-69
2024/02/29 07:16:51;;;;;;;10.77;1.10;;;;;;;;;;5050216;28;20134;-69
2024/02/29 07:19:16;;;;;;;10.80;0.98;;;;;;;;;;5049857;28;20037;-69
2024/02/29 07:21:42;;;;;;;9.73;1.00;;;;;;;;;;5049941;28;20036;-69
2024/02/29 07:24:08;;;;;;;11.07;1.20;;;;;;;;;;5031494;28;20045;-69
2024/02/29 07:26:40;;;;;;;7.55;1.20;;;;;;;;;;5049532;28;20115;-69
2024/02/29 07:29:05;;;;;;;8.27;1.17;;;;;;;;;;5032443;28;20037;-69
2024/02/29 07:31:30;;;;;;;15.60;1.10;;;;;;;;;;5031537;28;20423;-69
2024/02/29 07:33:56;;;;;;;10.85;1.05;;;;;;;;;;5048282;28;20439;-68
2024/02/29 07:36:21;;;;;;;8.35;1.02;;;;;;;;;;5049322;28;20032;-69
2024/02/29 07:38:47;;;;;;;9.77;0.95;;;;;;;;;;5049759;28;20048;-69
2024/02/29 07:41:12;;;;;;;14.20;0.88;;;;;;;;;;5038578;28;20078;-69
2024/02/29 07:43:37;;;;;;;7.40;0.85;;;;;;;;;;5045661;28;20049;-68
2024/02/29 07:46:03;;;;;;;19.27;1.00;;;;;;;;;;5050470;28;20036;-69
2024/02/29 07:48:29;;;;;;;9.45;1.00;;;;;;;;;;5049114;28;20028;-69
2024/02/29 07:50:54;;;;;;;7.10;1.02;;;;;;;;;;5049386;28;20068;-68
2024/02/29 07:53:20;;;;;;;11.13;1.00;;;;;;;;;;5049369;28;20608;-69
2024/02/29 07:55:45;;;;;;;4.20;0.77;;;;;;;;;;5050010;28;20040;-69
2024/02/29 07:58:10;;;;;;;10.93;0.90;;;;;;;;;;5049330;28;20078;-69
2024/02/29 08:00:37;;;;;;;9.27;0.98;;;;;;;;;;5049678;28;20044;-69
2024/02/29 08:03:04;;;;;;;13.35;1.80;;;;;;;;;;5049471;28;20064;-69
2024/02/29 08:05:29;;;;;;;12.85;1.10;;;;;;;;;;5031615;28;20060;-69
2024/02/29 08:07:55;;;;;;;11.98;1.30;;;;;;;;;;5048702;28;20119;-69
2024/02/29 08:10:20;;;;;;;9.10;1.10;;;;;;;;;;5048879;28;20029;-69
2024/02/29 08:12:45;;;;;;;4.45;0.93;;;;;;;;;;5049213;28;20555;-68
2024/02/29 08:15:11;;;;;;;10.52;2.03;;;;;;;;;;5049946;28;20486;-69
2024/02/29 08:17:36;;;;;;;9.00;1.10;;;;;;;;;;5049826;28;20087;-69
2024/02/29 08:20:02;;;;;;;5.03;0.70;;;;;;;;;;5053005;28;20473;-69
2024/02/29 08:22:28;;;;;;;8.65;0.90;;;;;;;;;;5035282;28;20400;-69
2024/02/29 08:24:53;;;;;;;68.53;2.47;;;;;;;;;;5049914;28;20037;-70
2024/02/29 08:27:18;;;;;;;8.85;0.85;;;;;;;;;;5050583;28;20041;-69
2024/02/29 08:29:44;;;;;;;5.35;0.88;;;;;;;;;;5054291;28;20079;-69
2024/02/29 08:32:09;;;;;;;3.10;1.00;;;;;;;;;;5052018;28;20025;-69
2024/02/29 08:34:34;;;;;;;3.42;0.77;;;;;;;;;;5054247;28;20404;-69
2024/02/29 08:37:01;;;;;;;4.78;0.80;;;;;;;;;;5053180;28;20130;-69
2024/02/29 08:39:27;;;;;;;6.68;1.02;;;;;;;;;;5051499;28;20044;-69
2024/02/29 08:41:52;;;;;;;6.88;1.05;;;;;;;;;;5050934;28;20040;-70
2024/02/29 08:44:17;;;;;;;3.40;0.75;;;;;;;;;;5052608;28;20060;-69
2024/02/29 08:46:43;;;;;;;14.50;1.20;;;;;;;;;;5052937;28;20408;-69
2024/02/29 08:49:09;;;;;;;11.10;0.90;;;;;;;;;;5035328;28;20037;-69
2024/02/29 08:51:35;;;;;;;6.25;1.30;;;;;;;;;;5033988;28;20036;-68
2024/02/29 08:54:01;;;;;;;4.95;1.05;;;;;;;;;;5034015;28;20056;-69
2024/02/29 08:56:28;;;;;;;4.85;1.00;;;;;;;;;;5034971;28;20097;-68
2024/02/29 08:58:53;;;;;;;9.88;1.10;;;;;;;;;;5052031;28;20036;-69
2024/02/29 09:01:20;;;;;;;6.18;1.10;;;;;;;;;;5052484;28;20377;-70
2024/02/29 09:03:45;;;;;;;10.68;1.40;;;;;;;;;;5034012;28;20076;-68
2024/02/29 09:06:11;;;;;;;6.63;1.20;;;;;;;;;;5032987;28;20136;-69
2024/02/29 09:08:37;;;;;;;10.85;1.50;;;;;;;;;;5043157;28;20044;-70
2024/02/29 09:11:03;;;;;;;9.60;1.52;;;;;;;;;;5047311;28;20029;-68
2024/02/29 09:13:28;;;;;;;14.38;1.20;;;;;;;;;;5047850;28;20045;-69
2024/02/29 09:15:54;;;;;;;11.73;1.48;;;;;;;;;;5056670;28;20090;-70
2024/02/29 09:18:20;;;;;;;3.97;1.15;;;;;;;;;;5048613;28;20098;-71
2024/02/29 09:20:45;;;;;;;7.22;1.27;;;;;;;;;;5054445;28;20036;-71
2024/02/29 09:23:10;;;;;;;5.57;1.40;;;;;;;;;;5047823;28;20037;-70
2024/02/29 09:25:36;;;;;;;7.18;1.08;;;;;;;;;;5047896;28;20099;-69
2024/02/29 09:28:01;;;;;;;5.85;1.38;;;;;;;;;;5049122;28;20041;-71
2024/02/29 09:30:27;;;;;;;7.63;0.98;;;;;;;;;;5049840;28;20044;-70
2024/02/29 09:32:55;;;;;;;9.80;1.15;;;;;;;;;;5047682;28;20081;-71
2024/02/29 09:35:20;;;;;;;5.43;1.08;;;;;;;;;;5048342;28;20041;-70
2024/02/29 09:37:46;;;;;;;9.20;1.05;;;;;;;;;;5047706;28;20040;-70
2024/02/29 09:40:12;;;;;;;7.07;1.00;;;;;;;;;;5030563;28;20029;-72
2024/02/29 09:42:38;;;;;;;8.52;0.90;;;;;;;;;;5048700;28;20051;-71
2024/02/29 09:45:06;;;;;;;12.90;1.35;;;;;;;;;;5048193;28;20139;-70
2024/02/29 09:47:32;;;;;;;9.27;1.10;;;;;;;;;;5029239;28;20056;-70
2024/02/29 09:49:59;;;;;;;10.13;1.17;;;;;;;;;;5035709;28;20044;-70
2024/02/29 09:52:25;;;;;;;10.20;1.58;;;;;;;;;;5050156;28;20029;-70
2024/02/29 09:54:51;;;;;;;7.45;1.38;;;;;;;;;;5013273;28;20575;-70
2024/02/29 09:57:16;;;;;;;7.70;1.08;;;;;;;;;;5030825;28;20049;-71
2024/02/29 09:59:42;;;;;;;9.73;1.25;;;;;;;;;;5032432;28;20037;-71
2024/02/29 10:02:13;;;;;;;13.05;1.98;;;;;;;;;;5048366;28;20037;-72
2024/02/29 10:04:38;;;;;;;8.85;1.33;;;;;;;;;;5031857;28;20037;-70
2024/02/29 10:07:04;;;;;;;7.05;1.02;;;;;;;;;;5047756;28;20041;-70
2024/02/29 10:09:30;;;;;;;8.73;1.25;;;;;;;;;;5047056;28;20041;-72
2024/02/29 10:11:56;;;;;;;11.90;2.20;;;;;;;;;;5048445;28;20127;-69
2024/02/29 10:14:25;;;;;;;7.60;1.35;;;;;;;;;;5047501;28;20133;-70
2024/02/29 10:16:54;;;;;;;10.02;2.08;;;;;;;;;;5029136;28;20083;-71
2024/02/29 10:19:23;;;;;;;15.32;1.42;;;;;;;;;;5027843;28;20512;-70
2024/02/29 10:21:49;;;;;;;11.05;1.30;;;;;;;;;;5037769;28;20502;-70
2024/02/29 10:24:14;;;;;;;6.70;1.83;;;;;;;;;;5028183;28;20033;-71
2024/02/29 10:26:39;;;;;;;16.67;1.70;;;;;;;;;;5054689;28;20041;-72
2024/02/29 10:29:08;;;;;;;8.57;1.55;;;;;;;;;;5030121;28;20041;-71
2024/02/29 10:31:33;;;;;;;16.65;1.80;;;;;;;;;;5029208;28;20091;-71
2024/02/29 10:33:58;;;;;;;6.43;1.48;;;;;;;;;;5046853;28;20056;-70
2024/02/29 10:36:24;;;;;;;17.38;2.03;;;;;;;;;;5046591;28;20029;-70
2024/02/29 10:38:49;;;;;;;10.15;1.73;;;;;;;;;;5046467;28;20039;-70
2024/02/29 10:41:16;;;;;;;9.68;1.58;;;;;;;;;;5033068;28;20048;-70
2024/02/29 10:43:45;;;;;;;11.38;1.70;;;;;;;;;;5046552;28;20495;-70
2024/02/29 10:46:10;;;;;;;10.50;1.90;;;;;;;;;;5047261;28;20135;-70
2024/02/29 10:48:51;;;;;;;11.48;2.20;;;;;;;;;;5046676;28;20115;-71
2024/02/29 10:51:44;;;;;;;13.07;1.80;;;;;;;;;;5047237;28;20052;-71
2024/02/29 10:54:14;;;;;;;7.22;1.40;;;;;;;;;;5034627;28;20369;-70
2024/02/29 10:56:42;;;;;;;13.13;2.10;;;;;;;;;;5046218;28;20403;-70
2024/02/29 10:59:07;;;;;;;9.82;1.63;;;;;;;;;;5028727;28;20039;-69
2024/02/29 11:01:34;;;;;;;14.32;1.73;;;;;;;;;;5046555;28;20424;-70
2024/02/29 11:04:00;;;;;;;10.98;2.00;;;;;;;;;;5029039;28;20048;-70
2024/02/29 11:06:27;;;;;;;16.52;1.90;;;;;;;;;;5028600;28;20040;-70
2024/02/29 11:08:53;;;;;;;8.40;1.50;;;;;;;;;;5028951;28;20051;-71
2024/02/29 11:11:24;;;;;;;9.73;2.15;;;;;;;;;;5045959;28;20044;-70
2024/02/29 11:13:50;;;;;;;12.00;1.90;;;;;;;;;;5046601;28;20041;-71
2024/02/29 11:16:17;;;;;;;15.25;2.05;;;;;;;;;;5028352;28;20048;-71
2024/02/29 11:18:43;;;;;;;14.48;1.58;;;;;;;;;;5046001;28;20044;-70
2024/02/29 11:21:08;;;;;;;14.27;1.80;;;;;;;;;;5046759;28;20040;-71
2024/02/29 11:23:43;;;;;;;13.02;1.85;;;;;;;;;;5046154;28;20029;-70
2024/02/29 11:26:10;;;;;;;9.63;1.67;;;;;;;;;;5029040;28;20048;-70
2024/02/29 11:28:37;;;;;;;8.88;1.65;;;;;;;;;;5029628;28;20096;-70
2024/02/29 11:31:32;;;;;;;12.60;1.92;;;;;;;;;;5030322;28;20411;-70
2024/02/29 11:33:57;;;;;;;11.00;1.38;;;;;;;;;;5009841;28;20447;-71
2024/02/29 11:36:23;;;;;;;10.73;2.03;;;;;;;;;;5045172;28;20028;-70
2024/02/29 11:38:48;;;;;;;12.85;1.90;;;;;;;;;;5029180;28;20033;-70
2024/02/29 11:41:17;;;;;;;11.38;1.85;;;;;;;;;;5045834;28;20055;-71
2024/02/29 11:43:43;;;;;;;11.25;1.63;;;;;;;;;;5045725;28;20029;-71
2024/02/29 11:46:09;;;;;;;10.45;1.70;;;;;;;;;;5045963;28;20025;-69
2024/02/29 11:48:35;;;;;;;8.88;1.92;;;;;;;;;;5046087;28;20040;-70
2024/02/29 11:51:02;;;;;;;18.48;2.35;;;;;;;;;;5045342;28;20033;-70
2024/02/29 11:53:29;;;;;;;8.68;1.70;;;;;;;;;;5038972;28;20040;-69
2024/02/29 11:55:55;;;;;;;8.73;2.33;;;;;;;;;;5028049;28;20037;-70
2024/02/29 11:58:21;;;;;;;11.15;2.72;;;;;;;;;;5027806;28;20035;-69
2024/02/29 12:00:47;;;;;;;14.55;2.25;;;;;;;;;;5045881;28;20033;-71
2024/02/29 12:03:12;;;;;;;9.13;1.95;;;;;;;;;;5045902;28;20095;-70
2024/02/29 12:05:38;;;;;;;12.07;2.47;;;;;;;;;;5027744;28;20033;-71
2024/02/29 12:08:04;;;;;;;9.43;1.73;;;;;;;;;;5045890;28;20138;-70
2024/02/29 12:10:30;;;;;;;14.13;2.00;;;;;;;;;;5045569;28;20043;-70
2024/02/29 12:12:55;;;;;;;7.57;1.85;;;;;;;;;;5031504;28;20037;-70
2024/02/29 12:15:21;;;;;;;14.10;1.90;;;;;;;;;;5049328;28;20029;-69
2024/02/29 12:17:47;;;;;;;13.35;1.50;;;;;;;;;;5049585;28;20044;-69
2024/02/29 12:20:16;;;;;;;6.60;1.50;;;;;;;;;;5031684;28;20040;-70
2024/02/29 12:22:43;;;;;;;7.05;1.48;;;;;;;;;;5032753;28;20132;-69
2024/02/29 12:25:15;;;;;;;14.35;1.80;;;;;;;;;;5031637;28;20044;-69
2024/02/29 12:27:43;;;;;;;9.32;1.98;;;;;;;;;;5048827;28;20131;-69
2024/02/29 12:30:11;;;;;;;9.40;1.75;;;;;;;;;;5049022;28;20036;-69
2024/02/29 12:32:36;;;;;;;11.68;2.40;;;;;;;;;;5049366;28;20086;-69
2024/02/29 12:35:04;;;;;;;15.23;1.92;;;;;;;;;;5049521;28;20136;-69
2024/02/29 12:37:29;;;;;;;8.60;1.27;;;;;;;;;;5048786;28;20392;-70
2024/02/29 12:39:59;;;;;;;6.25;1.58;;;;;;;;;;5049718;28;20052;-71
2024/02/29 12:42:24;;;;;;;13.63;1.80;;;;;;;;;;5049855;28;20047;-69
2024/02/29 12:44:50;;;;;;;12.45;1.63;;;;;;;;;;5048786;28;20977;-69
2024/02/29 12:47:15;;;;;;;14.20;1.60;;;;;;;;;;5031102;28;20048;-69
2024/02/29 12:49:41;;;;;;;8.55;1.60;;;;;;;;;;5031247;28;20040;-69
2024/02/29 12:52:06;;;;;;;10.55;2.05;;;;;;;;;;5045995;28;20029;-69
2024/02/29 12:54:31;;;;;;;19.45;2.05;;;;;;;;;;5048718;28;20052;-70
2024/02/29 12:56:57;;;;;;;15.10;1.95;;;;;;;;;;5047964;28;20967;-69
2024/02/29 12:59:23;;;;;;;11.10;2.00;;;;;;;;;;5030913;28;20091;-69
2024/02/29 13:01:48;;;;;;;9.23;1.38;;;;;;;;;;5030264;28;20044;-70
2024/02/29 13:04:14;;;;;;;9.02;1.45;;;;;;;;;;5048107;28;20040;-69
2024/02/29 13:06:39;;;;;;;9.13;1.90;;;;;;;;;;5048958;28;20025;-70
2024/02/29 13:09:05;;;;;;;8.35;1.92;;;;;;;;;;5044935;28;20079;-69
2024/02/29 13:11:30;;;;;;;10.88;1.67;;;;;;;;;;5052348;28;20036;-70
2024/02/29 13:13:56;;;;;;;10.23;2.03;;;;;;;;;;5047236;28;20499;-71
2024/02/29 13:16:21;;;;;;;18.05;2.08;;;;;;;;;;5047822;28;20068;-70
2024/02/29 13:18:46;;;;;;;15.43;2.28;;;;;;;;;;5046358;28;20044;-70
2024/02/29 13:21:12;;;;;;;10.38;1.88;;;;;;;;;;5032849;28;20080;-70
2024/02/29 13:23:37;;;;;;;14.48;2.42;;;;;;;;;;5044353;28;20672;-71
2024/02/29 13:26:02;;;;;;;14.48;2.22;;;;;;;;;;5047758;28;20044;-70
2024/02/29 13:28:28;;;;;;;12.48;2.00;;;;;;;;;;5041444;28;20116;-70
2024/02/29 13:30:53;;;;;;;15.13;1.90;;;;;;;;;;5047793;28;20053;-69
2024/02/29 13:33:18;;;;;;;14.07;2.10;;;;;;;;;;5047831;28;20291;-69
2024/02/29 13:35:44;;;;;;;10.68;1.75;;;;;;;;;;5040440;28;20886;-70
2024/02/29 13:38:09;;;;;;;7.75;1.65;;;;;;;;;;5045574;28;20161;-70
2024/02/29 13:40:34;;;;;;;13.43;1.98;;;;;;;;;;5046928;28;20036;-69
2024/02/29 13:43:00;;;;;;;13.07;2.08;;;;;;;;;;5048166;28;20384;-70
2024/02/29 13:45:31;;;;;;;18.77;2.70;;;;;;;;;;5047886;28;20990;-70
2024/02/29 13:47:57;;;;;;;12.63;2.60;;;;;;;;;;5013199;28;20293;-70
2024/02/29 13:50:22;;;;;;;16.35;2.67;;;;;;;;;;5047825;28;20592;-70
2024/02/29 13:52:48;;;;;;;15.27;2.15;;;;;;;;;;5047395;28;20033;-69
2024/02/29 13:55:13;;;;;;;11.05;1.63;;;;;;;;;;5029434;28;20388;-69
2024/02/29 13:57:39;;;;;;;6.40;1.60;;;;;;;;;;5048329;28;20044;-70
2024/02/29 14:00:06;;;;;;;9.75;1.90;;;;;;;;;;5029785;28;20033;-69
2024/02/29 14:02:32;;;;;;;11.95;1.50;;;;;;;;;;5029309;28;20029;-71
2024/02/29 14:04:57;;;;;;;14.82;2.03;;;;;;;;;;5046401;28;20033;-69
2024/02/29 14:07:23;;;;;;;17.23;1.80;;;;;;;;;;5047795;28;20041;-70
2024/02/29 14:09:48;;;;;;;14.65;1.85;;;;;;;;;;5047791;28;20025;-70
2024/02/29 14:12:13;;;;;;;9.13;1.33;;;;;;;;;;5047661;28;20047;-69
2024/02/29 14:14:39;;;;;;;16.35;1.90;;;;;;;;;;5047506;28;20472;-69
2024/02/29 14:17:04;;;;;;;8.80;1.75;;;;;;;;;;5047060;28;20094;-70
2024/02/29 14:19:29;;;;;;;15.48;1.65;;;;;;;;;;5029094;28;20070;-69
2024/02/29 14:21:55;;;;;;;11.15;2.30;;;;;;;;;;5047683;28;20044;-69
2024/02/29 14:24:20;;;;;;;15.48;2.50;;;;;;;;;;5046700;28;20053;-70
2024/02/29 14:26:45;;;;;;;10.02;1.50;;;;;;;;;;5046978;28;20067;-69
2024/02/29 14:29:11;;;;;;;8.65;1.60;;;;;;;;;;5047168;28;20154;-69
2024/02/29 14:31:36;;;;;;;15.57;1.83;;;;;;;;;;5046157;28;20056;-70